createdAt,value
2022-07-28T00:01:49.132Z,100349.19
2022-07-28T00:04:17.972Z,100343.94
2022-07-28T00:06:46.696Z,100350.09
2022-07-28T00:09:15.719Z,100357.97
2022-07-28T00:11:54.167Z,100351.84
2022-07-28T00:14:23.891Z,100346.59
2022-07-28T00:16:52.843Z,100338.72
2022-07-28T00:19:21.428Z,100336.94
2022-07-28T00:21:50.088Z,100331.69
2022-07-28T00:24:18.780Z,100335.22
2022-07-28T00:26:48.769Z,100336.06
2022-07-28T00:29:17.570Z,100336.88
2022-07-28T00:31:46.345Z,100334.25
2022-07-28T00:34:15.449Z,100341.25
2022-07-28T00:36:44.281Z,100341.25
2022-07-28T00:39:13.525Z,100337.75
2022-07-28T00:41:42.792Z,100335.97
2022-07-28T00:44:13.167Z,100334.19
2022-07-28T00:46:42.088Z,100318.38
2022-07-28T00:49:10.829Z,100320.09
2022-07-28T00:51:41.120Z,100330.63
2022-07-28T00:54:10.320Z,100320.03
2022-07-28T00:56:39.855Z,100321.78
2022-07-28T00:59:08.421Z,100327.78
2022-07-28T01:01:39.286Z,100329.47
2022-07-28T01:04:09.190Z,100322.44
2022-07-28T01:07:04.741Z,100324.94
2022-07-28T01:09:48.326Z,100323.13
2022-07-28T01:12:31.606Z,100329.22
2022-07-28T01:15:11.237Z,100315.19
2022-07-28T01:17:50.975Z,100316.94
2022-07-28T01:20:27.238Z,100315.16
2022-07-28T01:23:11.744Z,100317.69
2022-07-28T01:25:49.784Z,100313.28
2022-07-28T01:28:31.160Z,100323.72
2022-07-28T01:31:08.200Z,100314.03
2022-07-28T01:33:43.155Z,100312.28
2022-07-28T01:36:17.014Z,100309.63
2022-07-28T01:38:48.896Z,100302.59
2022-07-28T01:41:21.698Z,100317.44
2022-07-28T01:44:02.337Z,100306.88
2022-07-28T01:46:34.170Z,100307.66
2022-07-28T01:49:04.197Z,100300.63
2022-07-28T01:51:34.823Z,100309.31
2022-07-28T01:54:04.909Z,100307.53
2022-07-28T01:56:35.780Z,100308.31
2022-07-28T01:59:09.832Z,100304.78
2022-07-28T02:01:46.013Z,100298.63
2022-07-28T02:04:17.471Z,100307.38
2022-07-28T02:06:49.555Z,100301.28
2022-07-28T02:09:21.271Z,100303.94
2022-07-28T02:11:54.430Z,100300.47
2022-07-28T02:14:26.334Z,100296.06
2022-07-28T02:17:00.891Z,100291.72
2022-07-28T02:19:31.272Z,100300.44
2022-07-28T02:22:00.161Z,100301.31
2022-07-28T02:24:30.827Z,100300.44
2022-07-28T02:27:03.049Z,100295.19
2022-07-28T02:29:50.709Z,100289.97
2022-07-28T02:32:28.743Z,100276.84
2022-07-28T02:35:06.252Z,100275.94
2022-07-28T02:37:41.476Z,100282.94
2022-07-28T02:40:16.175Z,100270.63
2022-07-28T02:42:51.397Z,100275.88
2022-07-28T02:45:25.576Z,100274.94
2022-07-28T02:48:02.649Z,100272.25
2022-07-28T02:50:31.660Z,100272.13
2022-07-28T02:53:14.904Z,100269.47
2022-07-28T02:55:49.321Z,100267.66
2022-07-28T02:58:21.015Z,100266.72
2022-07-28T03:00:51.586Z,100265.78
2022-07-28T03:03:22.942Z,100274.53
2022-07-28T03:05:52.130Z,100278.00
2022-07-28T03:08:21.196Z,100271.00
2022-07-28T03:10:50.120Z,100272.69
2022-07-28T03:13:20.294Z,100270.91
2022-07-28T03:15:49.396Z,100267.41
2022-07-28T03:18:18.056Z,100266.47
2022-07-28T03:20:48.297Z,100267.31
2022-07-28T03:23:18.090Z,100261.19
2022-07-28T03:25:52.126Z,100268.22
2022-07-28T03:28:22.992Z,100268.13
2022-07-28T03:30:58.901Z,100266.31
2022-07-28T03:33:28.958Z,100268.91
2022-07-28T03:36:02.500Z,100273.19
2022-07-28T03:38:39.096Z,100279.25
2022-07-28T03:41:11.085Z,100273.94
2022-07-28T03:43:43.676Z,100275.66
2022-07-28T03:46:13.744Z,100265.94
2022-07-28T03:48:43.432Z,100266.81
2022-07-28T03:51:19.737Z,100279.94
2022-07-28T03:53:50.633Z,100279.03
2022-07-28T03:56:22.482Z,100276.44
2022-07-28T03:58:55.213Z,100285.16
2022-07-28T04:01:25.159Z,100286.00
2022-07-28T04:04:01.982Z,100286.00
2022-07-28T04:06:34.833Z,100285.09
2022-07-28T04:09:03.667Z,100285.94
2022-07-28T04:11:34.468Z,100284.19
2022-07-28T04:14:04.790Z,100283.31
2022-07-28T04:16:37.176Z,100277.19
2022-07-28T04:19:06.268Z,100281.56
2022-07-28T04:21:37.056Z,100279.72
2022-07-28T04:24:08.691Z,100278.81
2022-07-28T04:26:37.936Z,100282.25
2022-07-28T04:29:08.543Z,100281.34
2022-07-28T04:31:40.533Z,100262.97
2022-07-28T04:34:10.090Z,100267.31
2022-07-28T04:36:43.593Z,100263.81
2022-07-28T04:39:12.452Z,100262.88
2022-07-28T04:41:42.692Z,100265.47
2022-07-28T04:44:15.906Z,100275.09
2022-07-28T04:46:47.945Z,100270.69
2022-07-28T04:49:18.585Z,100268.88
2022-07-28T04:51:51.261Z,100280.19
2022-07-28T04:54:26.578Z,100272.34
2022-07-28T04:56:56.491Z,100277.59
2022-07-28T04:59:28.413Z,100283.69
2022-07-28T05:02:03.042Z,100280.19
2022-07-28T05:04:33.409Z,100290.66
2022-07-28T05:07:12.722Z,100287.16
2022-07-28T05:09:45.855Z,100285.34
2022-07-28T05:12:15.259Z,100282.72
2022-07-28T05:14:44.871Z,100287.94
2022-07-28T05:17:15.639Z,100287.88
2022-07-28T05:19:46.650Z,100287.88
2022-07-28T05:22:17.587Z,100287.81
2022-07-28T05:24:47.850Z,100287.81
2022-07-28T05:27:16.760Z,100285.22
2022-07-28T05:29:47.323Z,100281.69
2022-07-28T05:32:18.151Z,100277.31
2022-07-28T05:34:46.964Z,100285.13
2022-07-28T05:37:17.013Z,100270.19
2022-07-28T05:39:49.630Z,100274.53
2022-07-28T05:42:18.417Z,100271.78
2022-07-28T05:44:48.080Z,100283.94
2022-07-28T05:47:16.865Z,100286.56
2022-07-28T05:49:45.614Z,100276.06
2022-07-28T05:52:14.659Z,100281.28
2022-07-28T05:54:48.200Z,100270.88
2022-07-28T05:57:17.359Z,100276.16
2022-07-28T05:59:46.218Z,100284.00
2022-07-28T06:02:15.007Z,100284.88
2022-07-28T06:04:43.855Z,100282.28
2022-07-28T06:07:13.103Z,100275.25
2022-07-28T06:09:45.199Z,100276.16
2022-07-28T06:12:15.677Z,100274.41
2022-07-28T06:14:44.225Z,100278.72
2022-07-28T06:17:14.917Z,100277.84
2022-07-28T06:19:43.917Z,100283.06
2022-07-28T06:22:15.363Z,100283.16
2022-07-28T06:24:45.162Z,100277.91
2022-07-28T06:27:15.718Z,100278.94
2022-07-28T06:29:44.736Z,100269.31
2022-07-28T06:32:14.023Z,100273.72
2022-07-28T06:34:42.666Z,100270.25
2022-07-28T06:37:11.430Z,100273.75
2022-07-28T06:39:40.299Z,100272.88
2022-07-28T06:42:09.023Z,100278.16
2022-07-28T06:44:57.884Z,100279.84
2022-07-28T06:47:28.137Z,100272.81
2022-07-28T06:49:56.889Z,100285.06
2022-07-28T06:52:28.356Z,100280.69
2022-07-28T06:54:58.241Z,100279.00
2022-07-28T06:57:33.746Z,100279.00
2022-07-28T07:00:06.774Z,100286.88
2022-07-28T07:02:40.157Z,100283.38
2022-07-28T07:05:32.256Z,100278.94
2022-07-28T07:08:01.594Z,100279.03
2022-07-28T07:10:30.671Z,100274.72
2022-07-28T07:12:59.417Z,100275.72
2022-07-28T07:15:29.856Z,100277.59
2022-07-28T07:17:59.986Z,100270.72
2022-07-28T07:20:29.081Z,100276.91
2022-07-28T07:22:57.752Z,100283.03
2022-07-28T07:25:26.325Z,100274.44
2022-07-28T07:27:54.933Z,100276.25
2022-07-28T07:30:23.601Z,100269.31
2022-07-28T07:32:54.730Z,100267.72
2022-07-28T07:35:23.447Z,100268.66
2022-07-28T07:37:53.343Z,100263.44
2022-07-28T07:40:23.970Z,100265.19
2022-07-28T07:42:53.605Z,100267.81
2022-07-28T07:45:23.195Z,100261.72
2022-07-28T07:47:52.226Z,100256.50
2022-07-28T07:50:23.101Z,100253.97
2022-07-28T07:52:51.918Z,100253.22
2022-07-28T07:55:26.914Z,100251.53
2022-07-28T07:58:05.202Z,100254.22
2022-07-28T08:00:34.316Z,100252.59
2022-07-28T08:03:04.880Z,100246.47
2022-07-28T08:05:44.087Z,100237.66
2022-07-28T08:08:14.309Z,100249.91
2022-07-28T08:10:44.603Z,100246.44
2022-07-28T08:13:20.556Z,100239.47
2022-07-28T08:15:53.816Z,100243.81
2022-07-28T08:18:24.128Z,100239.47
2022-07-28T08:20:54.299Z,100250.94
2022-07-28T08:23:26.293Z,100244.13
2022-07-28T08:25:56.893Z,100241.66
2022-07-28T08:28:25.668Z,100241.75
2022-07-28T08:30:54.460Z,100229.63
2022-07-28T08:33:23.569Z,100237.59
2022-07-28T08:35:53.828Z,100236.00
2022-07-28T08:38:22.431Z,100233.53
2022-07-28T08:40:52.578Z,100234.59
2022-07-28T08:44:05.010Z,100237.28
2022-07-28T08:47:16.459Z,100225.00
2022-07-28T08:55:10.812Z,100229.56
2022-07-28T08:58:19.752Z,100239.34
2022-07-28T09:01:38.903Z,100230.69
2022-07-28T09:04:22.759Z,100238.66
2022-07-28T09:11:19.514Z,100232.78
2022-07-28T09:14:24.913Z,100227.75
2022-07-28T09:16:54.378Z,100217.38
2022-07-28T09:19:22.949Z,100220.06
2022-07-28T09:21:52.161Z,100216.66
2022-07-28T09:24:39.554Z,100218.59
2022-07-28T09:27:10.441Z,100216.94
2022-07-28T09:29:44.021Z,100215.31
2022-07-28T09:36:06.739Z,100213.00
2022-07-28T09:39:18.578Z,100212.22
2022-07-28T09:43:32.010Z,100202.63
2022-07-28T09:46:18.702Z,100201.81
2022-07-28T09:48:59.296Z,100182.56
2022-07-28T09:51:31.386Z,100197.56
2022-07-28T09:54:12.923Z,100188.88
2022-07-28T09:56:44.358Z,100190.72
2022-07-28T09:59:16.199Z,100174.06
2022-07-28T10:01:59.938Z,100176.78
2022-07-28T10:04:34.964Z,100175.06
2022-07-28T10:07:10.016Z,100182.19
2022-07-28T10:09:40.234Z,100169.94
2022-07-28T10:12:20.943Z,100172.63
2022-07-28T10:14:52.145Z,100166.47
2022-07-28T10:17:29.167Z,100173.47
2022-07-28T10:20:01.625Z,100176.13
2022-07-28T10:22:34.122Z,100176.16
2022-07-28T10:25:07.829Z,100166.56
2022-07-28T10:27:38.922Z,100174.50
2022-07-28T10:30:09.429Z,100159.59
2022-07-28T10:32:43.557Z,100168.41
2022-07-28T10:35:18.926Z,100162.28
2022-07-28T10:37:53.292Z,100168.50
2022-07-28T10:40:30.100Z,100157.09
2022-07-28T10:43:02.148Z,100162.38
2022-07-28T10:45:55.083Z,100164.13
2022-07-28T10:48:24.041Z,100158.91
2022-07-28T10:50:54.066Z,100151.00
2022-07-28T10:53:37.349Z,100149.34
2022-07-28T10:56:16.655Z,100153.75
2022-07-28T10:58:59.114Z,100150.25
2022-07-28T11:01:49.075Z,100143.19
2022-07-28T11:05:02.072Z,100147.59
2022-07-28T11:07:41.893Z,100142.34
2022-07-28T11:10:32.754Z,100148.50
2022-07-28T11:13:04.491Z,100144.09
2022-07-28T11:15:44.354Z,100139.72
2022-07-28T11:19:36.668Z,100139.72
2022-07-28T11:22:37.349Z,100120.41
2022-07-28T11:25:29.967Z,100131.84
2022-07-28T11:28:19.318Z,100124.81
2022-07-28T11:31:01.589Z,100109.00
2022-07-28T11:34:09.255Z,100108.13
2022-07-28T11:37:04.139Z,100116.06
2022-07-28T11:39:43.887Z,100109.00
2022-07-28T11:42:31.134Z,100107.19
2022-07-28T11:45:37.774Z,100104.56
2022-07-28T11:48:19.557Z,100105.47
2022-07-28T11:51:16.523Z,100102.81
2022-07-28T11:53:53.606Z,100099.28
2022-07-28T11:56:38.609Z,100107.22
2022-07-28T11:59:18.616Z,100093.13
2022-07-28T12:01:58.879Z,100089.59
2022-07-28T12:05:13.631Z,100087.81
2022-07-28T12:07:49.985Z,100080.75
2022-07-28T12:10:56.075Z,100084.25
2022-07-28T12:13:37.966Z,100083.38
2022-07-28T12:16:11.777Z,100074.53
2022-07-28T12:18:53.792Z,100081.56
2022-07-28T12:21:47.534Z,100080.66
2022-07-28T12:24:46.001Z,100075.38
2022-07-28T12:27:37.736Z,100071.84
2022-07-28T12:30:30.672Z,100070.97
2022-07-28T12:33:02.559Z,100071.81
2022-07-28T12:35:31.489Z,100061.25
2022-07-28T12:38:00.795Z,100069.16
2022-07-28T12:40:37.853Z,100056.81
2022-07-28T12:43:07.709Z,100060.25
2022-07-28T12:45:54.062Z,100058.47
2022-07-28T12:48:35.791Z,100061.94
2022-07-28T12:51:37.731Z,100051.41
2022-07-28T12:54:14.717Z,100044.31
2022-07-28T13:48:27.266Z,100019.28
2022-07-28T13:50:58.856Z,100013.97
2022-07-28T13:53:42.482Z,100016.56
2022-07-28T13:56:13.883Z,100016.56
2022-07-28T13:58:47.509Z,100007.69
2022-07-28T14:01:23.831Z,100008.53
2022-07-28T14:04:13.138Z,99998.75
2022-07-28T14:06:52.519Z,100001.44
2022-07-28T14:09:26.462Z,100002.25
2022-07-28T14:11:59.967Z,99992.53
2022-07-28T14:14:37.541Z,99992.44
2022-07-28T14:17:42.791Z,99989.72
2022-07-28T14:20:26.741Z,99988.72
2022-07-28T14:23:10.808Z,99975.34
2022-07-28T14:25:49.641Z,99992.09
2022-07-28T14:28:27.074Z,99979.75
2022-07-28T14:31:00.249Z,99983.28
2022-07-28T14:33:40.421Z,99972.66
2022-07-28T14:36:14.461Z,99978.78
2022-07-28T14:39:00.859Z,99973.47
2022-07-28T14:41:35.444Z,99977.91
2022-07-28T14:44:05.381Z,99974.34
2022-07-28T14:46:38.566Z,99968.97
2022-07-28T14:53:59.040Z,99977.97
2022-07-28T14:56:28.626Z,99978.88
2022-07-28T14:58:57.517Z,99972.72
2022-07-28T15:01:27.851Z,99973.63
2022-07-28T15:04:04.888Z,99970.09
2022-07-28T15:06:35.886Z,99966.59
2022-07-28T15:09:09.483Z,99966.63
2022-07-28T15:11:39.808Z,99963.13
2022-07-28T15:14:09.137Z,99966.72
2022-07-28T15:16:38.567Z,99980.84
2022-07-28T15:19:12.628Z,99980.88
2022-07-28T15:21:47.779Z,99973.78
2022-07-28T15:24:19.969Z,99973.78
2022-07-28T15:26:49.796Z,99976.41
2022-07-28T15:29:20.351Z,99970.22
2022-07-28T15:31:50.670Z,99970.22
2022-07-28T15:34:24.460Z,99977.31
2022-07-28T15:36:54.825Z,99959.72
2022-07-28T15:39:26.257Z,99958.88
2022-07-28T15:42:01.854Z,99966.81
2022-07-28T15:44:31.512Z,99959.72
2022-07-28T15:47:04.582Z,99961.47
2022-07-28T15:49:33.855Z,99955.28
2022-07-28T15:52:03.023Z,99950.88
2022-07-28T15:54:35.251Z,99947.28
2022-07-28T15:57:06.683Z,99944.69
2022-07-28T15:59:50.276Z,99947.34
2022-07-28T16:02:24.090Z,99951.81
2022-07-28T16:04:54.721Z,99945.72
2022-07-28T16:07:29.040Z,99956.31
2022-07-28T16:10:07.532Z,99941.31
2022-07-28T16:12:40.150Z,99944.91
2022-07-28T16:15:10.833Z,99956.44
2022-07-28T16:17:41.783Z,99948.47
2022-07-28T16:20:12.773Z,99952.03
2022-07-28T16:23:29.749Z,99946.78
2022-07-28T16:26:00.691Z,99953.81
2022-07-28T16:28:31.955Z,99947.63
2022-07-28T16:31:01.668Z,99944.97
2022-07-28T16:33:33.159Z,99959.97
2022-07-28T16:36:03.733Z,99944.09
2022-07-28T16:38:36.231Z,99948.50
2022-07-28T16:41:09.404Z,99948.53
2022-07-28T16:43:44.754Z,99948.56
2022-07-28T16:46:25.279Z,99947.69
2022-07-28T16:48:57.958Z,99945.94
2022-07-28T16:51:35.038Z,99940.63
2022-07-28T16:54:10.084Z,99939.75
2022-07-28T17:01:29.941Z,99927.50
2022-07-28T17:03:59.213Z,99927.56
2022-07-28T17:06:28.974Z,99941.69
2022-07-28T17:09:00.322Z,99932.88
2022-07-28T17:11:31.469Z,99927.56
2022-07-28T17:14:04.369Z,99935.50
2022-07-28T17:16:42.810Z,99939.94
2022-07-28T17:19:15.890Z,99940.81
2022-07-28T17:21:48.873Z,99943.50
2022-07-28T17:24:44.905Z,99932.09
2022-07-28T17:27:44.647Z,99942.69
2022-07-28T17:30:24.401Z,99944.44
2022-07-28T17:33:23.982Z,99940.91
2022-07-28T17:36:07.252Z,99939.19
2022-07-28T17:38:39.025Z,99943.56
2022-07-28T17:41:09.986Z,99951.53
2022-07-28T17:43:49.245Z,99948.91
2022-07-28T17:49:25.173Z,99933.97
2022-07-28T17:52:02.943Z,99934.00
2022-07-28T17:54:53.775Z,99931.34
2022-07-28T17:57:28.676Z,99929.56
2022-07-28T18:00:12.525Z,99941.94
2022-07-28T18:02:42.327Z,99941.03
2022-07-28T18:05:28.606Z,99933.09
2022-07-28T18:08:11.899Z,99942.84
2022-07-28T18:10:42.778Z,99941.13
2022-07-28T18:13:13.921Z,99939.38
2022-07-28T18:15:44.524Z,99939.41
2022-07-28T18:18:19.187Z,99940.28
2022-07-28T18:20:53.370Z,99939.47
2022-07-28T18:23:30.505Z,99948.28
2022-07-28T18:26:03.197Z,99940.34
2022-07-28T18:28:42.612Z,99942.09
2022-07-28T18:31:18.879Z,99942.09
2022-07-28T18:33:50.080Z,99950.00
2022-07-28T18:36:23.637Z,99952.69
2022-07-28T18:38:57.132Z,99942.09
2022-07-28T18:41:26.845Z,99945.66
2022-07-28T18:44:05.408Z,99943.91
2022-07-28T18:46:38.617Z,99947.47
2022-07-28T18:49:15.123Z,99948.34
2022-07-28T18:51:53.355Z,99950.16
2022-07-28T18:54:27.609Z,99939.59
2022-07-28T18:57:05.634Z,99946.63
2022-07-28T18:59:51.755Z,99945.78
2022-07-28T19:02:26.461Z,99946.69
2022-07-28T19:04:55.665Z,99945.78
2022-07-28T19:07:26.221Z,99946.69
2022-07-28T19:09:55.289Z,99949.34
2022-07-28T19:12:31.810Z,99947.59
2022-07-28T19:15:09.923Z,99948.47
2022-07-28T19:17:40.925Z,99955.53
2022-07-28T19:20:13.327Z,99950.25
2022-07-28T19:22:43.957Z,99951.13
2022-07-28T19:25:13.234Z,99952.91
2022-07-28T19:27:44.296Z,99964.41
2022-07-28T19:30:15.557Z,99964.44
2022-07-28T19:32:45.982Z,99975.00
2022-07-28T19:35:15.382Z,99971.50
2022-07-28T19:37:49.598Z,99972.38
2022-07-28T19:40:21.364Z,99978.56
2022-07-28T19:42:50.555Z,99970.63
2022-07-28T19:45:54.917Z,99981.19
2022-07-28T19:49:48.242Z,99979.50
2022-07-28T19:54:07.125Z,99990.97
2022-07-28T19:58:01.766Z,99990.97
2022-07-28T20:01:59.673Z,100000.69
2022-07-28T20:05:23.634Z,100003.31
2022-07-28T20:12:57.958Z,99998.91
2022-07-28T20:23:58.893Z,100001.56
2022-07-28T20:27:09.631Z,99998.06
2022-07-28T20:31:24.353Z,99998.94
2022-07-28T20:42:52.798Z,100002.44
2022-07-28T20:54:35.634Z,100009.47
2022-07-28T20:58:06.190Z,100013.88
2022-07-28T21:01:14.998Z,100007.75
2022-07-28T21:04:29.045Z,100015.66
2022-07-28T21:08:04.510Z,100020.97
2022-07-28T21:10:31.289Z,100023.59
2022-07-28T21:14:11.903Z,100025.34
2022-07-28T21:20:55.469Z,100017.44
2022-07-28T21:24:31.837Z,100012.19
2022-07-28T21:28:38.955Z,100005.16
2022-07-28T21:36:30.836Z,100006.03
2022-07-28T21:40:06.588Z,99995.47
2022-07-28T21:43:46.372Z,100002.50
2022-07-28T21:47:28.437Z,99999.00
2022-07-28T22:03:56.593Z,100004.31
2022-07-28T22:08:02.393Z,99994.63
2022-07-28T22:14:58.320Z,99996.34
2022-07-28T22:19:12.905Z,100006.03
2022-07-28T22:22:29.289Z,100005.19
2022-07-28T22:29:38.471Z,100016.59
2022-07-28T22:33:04.633Z,100019.25
2022-07-28T22:55:05.990Z,100015.75
2022-07-28T23:02:42.885Z,100019.25
2022-07-28T23:06:03.686Z,100011.34
2022-07-28T23:08:58.798Z,100014.84
2022-07-28T23:11:59.528Z,100018.38
2022-07-28T23:15:42.827Z,100017.50
2022-07-28T23:22:52.225Z,100014.84
2022-07-28T23:26:25.434Z,100005.19
2022-07-28T23:30:44.452Z,100010.47
2022-07-28T23:34:19.236Z,100006.06
2022-07-28T23:37:49.456Z,100002.56
2022-07-28T23:41:54.684Z,99999.03
2022-07-28T23:45:36.593Z,99987.63
2022-07-28T23:53:00.429Z,99988.50
